Time;durP1;ratioP1;P1;durP2;ratioP2;P2;SDS_P1;SDS_P2;PMS_P1;PMS_P2;Temp;Humidity;BMP_temperature;BMP_pressure;BME280_temperature;BME280_humidity;BME280_pressure;Samples;Min_cycle;Max_cycle;Signal;HPM_P1;HPM_P2
2022/08/17 00:00:22;;;;;;;4.57;4.27;;;22.10;99.90;;;;;;5035883;28;20410;-68
2022/08/17 00:03:00;;;;;;;5.67;5.20;;;22.10;99.90;;;;;;5035397;28;20211;-68
2022/08/17 00:05:28;;;;;;;6.27;5.50;;;22.20;99.90;;;;;;5035949;28;20509;-68
2022/08/17 00:07:54;;;;;;;5.53;5.03;;;22.30;99.90;;;;;;5034586;28;20421;-68
2022/08/17 00:10:20;;;;;;;4.90;4.60;;;22.30;99.90;;;;;;5035592;28;20402;-69
2022/08/17 00:12:46;;;;;;;5.70;5.20;;;22.40;99.90;;;;;;5035783;28;20194;-68
2022/08/17 00:15:12;;;;;;;6.00;5.50;;;22.30;99.90;;;;;;5035409;28;20441;-68
2022/08/17 00:17:40;;;;;;;6.27;5.30;;;22.20;99.90;;;;;;5035687;28;20245;-68
2022/08/17 00:20:08;;;;;;;6.50;5.90;;;22.20;99.90;;;;;;5035741;28;20417;-68
2022/08/17 00:22:33;;;;;;;5.97;5.43;;;22.20;99.90;;;;;;5035282;28;20480;-68
2022/08/17 00:24:59;;;;;;;5.30;4.80;;;22.20;99.90;;;;;;5035206;28;20406;-68
2022/08/17 00:27:25;;;;;;;6.10;5.10;;;22.30;99.90;;;;;;5034154;28;20180;-68
2022/08/17 00:29:50;;;;;;;5.17;4.70;;;22.30;99.90;;;;;;5035523;28;20199;-68
2022/08/17 00:32:16;;;;;;;5.40;5.00;;;22.10;99.90;;;;;;5033786;28;20202;-68
2022/08/17 00:34:41;;;;;;;4.93;4.57;;;22.00;99.90;;;;;;5035286;28;20191;-68
2022/08/17 00:37:07;;;;;;;5.63;5.13;;;21.90;99.90;;;;;;5035004;28;20167;-68
2022/08/17 00:39:33;;;;;;;5.30;4.90;;;21.80;99.90;;;;;;5034563;28;20179;-68
2022/08/17 00:41:58;;;;;;;10.20;5.90;;;21.80;99.90;;;;;;5034920;28;20186;-68
2022/08/17 00:44:24;;;;;;;6.23;5.63;;;21.80;99.90;;;;;;5035239;28;20236;-68
2022/08/17 00:46:50;;;;;;;7.60;5.10;;;21.80;99.90;;;;;;5037509;28;20167;-68
2022/08/17 00:49:18;;;;;;;5.00;4.57;;;21.80;99.90;;;;;;5035067;28;20199;-68
2022/08/17 00:51:57;;;;;;;5.30;4.80;;;21.90;99.90;;;;;;5034816;28;20184;-68
2022/08/17 00:54:35;;;;;;;6.57;6.00;;;21.90;99.90;;;;;;5033574;28;20491;-68
2022/08/17 00:57:07;;;;;;;5.57;5.20;;;21.90;99.90;;;;;;5035004;28;20455;-68
2022/08/17 00:59:37;;;;;;;5.30;4.90;;;21.90;99.90;;;;;;5034672;28;20406;-68
2022/08/17 01:02:06;;;;;;;5.37;4.90;;;21.80;99.90;;;;;;5034558;28;20499;-68
2022/08/17 01:04:32;;;;;;;5.33;4.93;;;21.70;99.90;;;;;;5034756;28;20899;-68
2022/08/17 01:07:00;;;;;;;6.70;5.90;;;21.70;99.90;;;;;;5034727;28;20489;-68
2022/08/17 01:09:26;;;;;;;5.37;4.97;;;21.70;99.90;;;;;;5033027;28;20426;-68
2022/08/17 01:11:52;;;;;;;6.13;5.73;;;21.60;99.90;;;;;;5034464;28;20422;-68
2022/08/17 01:14:23;;;;;;;7.90;5.30;;;21.50;99.90;;;;;;5034781;28;20784;-68
2022/08/17 01:16:52;;;;;;;6.40;5.80;;;21.40;99.90;;;;;;5034282;28;20394;-68
2022/08/17 01:19:30;;;;;;;6.90;5.50;;;21.40;99.90;;;;;;5034290;28;20402;-68
2022/08/17 01:22:09;;;;;;;5.67;4.77;;;21.40;99.90;;;;;;5034484;28;20473;-69
2022/08/17 01:24:39;;;;;;;5.97;5.40;;;21.50;99.90;;;;;;5033849;28;20401;-67
2022/08/17 01:27:06;;;;;;;6.33;5.60;;;21.50;99.90;;;;;;5034701;28;20402;-68
2022/08/17 01:29:33;;;;;;;6.57;5.97;;;21.50;99.90;;;;;;5034278;28;20406;-68
2022/08/17 01:32:03;;;;;;;6.20;5.60;;;21.50;99.90;;;;;;5033897;28;20509;-68
2022/08/17 01:34:29;;;;;;;6.17;5.60;;;21.50;99.90;;;;;;5033861;28;20453;-67
2022/08/17 01:36:55;;;;;;;6.10;5.60;;;21.50;99.90;;;;;;5034164;28;20492;-68
2022/08/17 01:39:21;;;;;;;5.60;5.00;;;21.50;99.90;;;;;;5033043;28;20488;-68
2022/08/17 01:41:49;;;;;;;6.23;5.27;;;21.40;99.90;;;;;;5033779;28;20668;-68
2022/08/17 01:44:15;;;;;;;6.23;5.70;;;21.30;99.90;;;;;;5034844;28;20175;-68
2022/08/17 01:46:41;;;;;;;6.23;5.63;;;21.20;99.90;;;;;;5034055;28;20410;-67
2022/08/17 01:49:09;;;;;;;5.73;5.23;;;21.10;99.90;;;;;;5033852;28;20413;-67
2022/08/17 01:51:35;;;;;;;6.57;6.07;;;21.10;99.90;;;;;;5033750;28;20179;-69
2022/08/17 01:54:04;;;;;;;6.27;5.67;;;21.00;99.90;;;;;;5033165;28;20921;-69
2022/08/17 01:56:32;;;;;;;6.77;6.07;;;21.00;99.90;;;;;;5033794;28;20628;-68
2022/08/17 01:58:58;;;;;;;6.10;5.60;;;21.00;99.90;;;;;;5034065;28;20493;-68
2022/08/17 02:01:27;;;;;;;6.33;5.80;;;21.00;99.90;;;;;;5057167;23;20467;-70
2022/08/17 02:03:54;;;;;;;6.37;5.77;;;21.00;99.90;;;;;;5034306;28;20163;-71
2022/08/17 02:06:19;;;;;;;8.20;6.60;;;21.00;99.90;;;;;;5033828;28;20468;-70
2022/08/17 02:08:45;;;;;;;7.03;5.90;;;21.00;99.90;;;;;;5032327;28;20422;-72
2022/08/17 02:11:16;;;;;;;6.30;5.90;;;21.00;99.90;;;;;;5032542;28;20167;-70
2022/08/17 02:13:44;;;;;;;7.27;6.67;;;20.90;99.90;;;;;;5033775;28;20159;-72
2022/08/17 02:16:10;;;;;;;5.73;5.33;;;20.90;99.90;;;;;;5032345;28;20446;-72
2022/08/17 02:18:36;;;;;;;6.87;6.27;;;20.80;99.90;;;;;;5033937;28;20817;-72
2022/08/17 02:21:02;;;;;;;6.33;5.43;;;20.90;99.90;;;;;;5033375;28;20437;-71
2022/08/17 02:23:31;;;;;;;6.53;5.93;;;20.80;99.90;;;;;;5032872;28;20772;-73
2022/08/17 02:25:58;;;;;;;6.60;5.93;;;20.90;99.90;;;;;;5032361;28;20967;-71
2022/08/17 02:28:27;;;;;;;6.20;5.70;;;21.00;99.90;;;;;;5033475;28;20414;-71
2022/08/17 02:30:53;;;;;;;9.53;5.47;;;20.90;99.90;;;;;;5033393;28;20823;-72
2022/08/17 02:33:20;;;;;;;5.90;5.40;;;21.00;99.90;;;;;;5033430;28;20450;-71
2022/08/17 02:35:46;;;;;;;6.07;5.57;;;21.00;99.90;;;;;;5033578;28;20456;-72
2022/08/17 02:38:11;;;;;;;5.67;4.93;;;21.20;99.90;;;;;;5032949;28;20977;-71
2022/08/17 02:40:39;;;;;;;9.87;6.57;;;21.20;99.90;;;;;;5033776;28;20496;-72
2022/08/17 02:43:06;;;;;;;5.67;5.27;;;21.20;99.90;;;;;;5033445;28;20179;-71
2022/08/17 02:45:31;;;;;;;6.03;5.43;;;21.10;99.90;;;;;;5033759;28;20891;-71
2022/08/17 02:47:57;;;;;;;6.00;5.50;;;21.00;99.90;;;;;;5033969;28;20405;-70
2022/08/17 02:50:24;;;;;;;6.00;5.50;;;20.90;99.90;;;;;;5036373;28;20167;-71
2022/08/17 02:52:50;;;;;;;6.17;5.60;;;20.90;99.90;;;;;;5037076;28;20237;-71
2022/08/17 02:55:24;;;;;;;8.27;5.50;;;20.90;99.90;;;;;;5037056;28;20446;-71
2022/08/17 02:57:50;;;;;;;5.53;5.03;;;20.90;99.90;;;;;;5037687;28;20406;-71
2022/08/17 03:00:23;;;;;;;6.30;5.70;;;21.00;99.90;;;;;;5037351;28;20922;-71
2022/08/17 03:02:50;;;;;;;4.90;4.60;;;21.10;99.90;;;;;;5036993;28;20448;-70
2022/08/17 03:05:20;;;;;;;6.03;5.53;;;21.10;99.90;;;;;;5037106;28;20505;-71
2022/08/17 03:07:46;;;;;;;6.10;5.60;;;21.00;99.90;;;;;;5036368;28;20440;-71
2022/08/17 03:10:13;;;;;;;5.53;5.00;;;20.90;99.90;;;;;;5036832;28;20974;-71
2022/08/17 03:12:40;;;;;;;5.53;5.13;;;20.90;99.90;;;;;;5037117;28;20429;-70
2022/08/17 03:15:10;;;;;;;5.17;4.77;;;20.80;99.90;;;;;;5037327;28;20472;-70
2022/08/17 03:17:36;;;;;;;5.50;5.10;;;20.80;99.90;;;;;;5037130;28;20407;-70
2022/08/17 03:20:03;;;;;;;5.70;5.20;;;20.80;99.90;;;;;;5036803;28;20394;-72
2022/08/17 03:22:33;;;;;;;4.87;4.43;;;20.90;99.90;;;;;;5037009;28;20549;-72
2022/08/17 03:24:59;;;;;;;5.40;5.00;;;20.90;99.90;;;;;;5036546;28;20398;-72
2022/08/17 03:27:24;;;;;;;5.47;5.07;;;20.90;99.90;;;;;;5036921;28;20472;-71
2022/08/17 03:29:50;;;;;;;5.87;5.23;;;21.00;99.90;;;;;;5036735;28;20195;-72
2022/08/17 03:32:16;;;;;;;5.87;5.33;;;21.10;99.90;;;;;;5036525;28;20201;-73
2022/08/17 03:34:41;;;;;;;6.07;5.30;;;21.20;99.90;;;;;;5036945;28;20762;-72
2022/08/17 03:37:07;;;;;;;6.13;5.63;;;21.30;99.90;;;;;;5035211;28;20168;-72
2022/08/17 03:39:33;;;;;;;4.77;4.47;;;21.30;99.90;;;;;;5036153;28;20179;-71
2022/08/17 03:42:13;;;;;;;6.03;5.43;;;21.30;99.90;;;;;;5036504;28;20187;-73
2022/08/17 03:44:38;;;;;;;5.80;5.20;;;21.30;99.90;;;;;;5036680;28;20874;-71
2022/08/17 03:58:01;;;;;;;6.10;5.60;;;20.80;99.90;;;;;;5036248;28;20437;-70
2022/08/17 04:00:27;;;;;;;7.80;5.40;;;20.70;99.90;;;;;;5036413;28;20798;-70
2022/08/17 04:02:53;;;;;;;6.00;5.50;;;20.60;99.90;;;;;;5035987;28;20552;-71
2022/08/17 04:05:19;;;;;;;6.37;5.87;;;20.50;99.90;;;;;;5036370;28;20171;-69
2022/08/17 04:07:45;;;;;;;5.97;5.43;;;20.50;99.90;;;;;;5035450;28;20430;-71
2022/08/17 04:10:12;;;;;;;5.70;5.20;;;20.50;99.90;;;;;;5035357;28;21000;-71
2022/08/17 04:12:44;;;;;;;5.57;5.07;;;20.30;99.90;;;;;;5035956;28;20183;-72
2022/08/17 04:15:11;;;;;;;5.93;5.43;;;20.20;99.90;;;;;;5035688;28;20449;-71
2022/08/17 04:17:37;;;;;;;5.90;5.30;;;20.20;99.90;;;;;;5036148;28;20873;-71
2022/08/17 04:20:03;;;;;;;6.70;6.00;;;20.10;99.90;;;;;;5035781;28;20540;-71
2022/08/17 04:22:29;;;;;;;5.83;5.20;;;20.00;99.90;;;;;;5036067;28;20195;-72
2022/08/17 04:24:55;;;;;;;6.30;5.80;;;20.10;99.90;;;;;;5033098;28;20915;-70
2022/08/17 04:27:20;;;;;;;6.37;5.50;;;20.10;99.90;;;;;;5034337;28;20183;-70
2022/08/17 04:29:46;;;;;;;5.20;4.80;;;20.20;99.90;;;;;;5033663;28;20915;-71
2022/08/17 04:32:12;;;;;;;4.83;4.43;;;20.40;99.90;;;;;;5018473;28;20571;-70
2022/08/17 04:34:37;;;;;;;6.80;5.73;;;20.50;99.90;;;;;;5013827;28;20196;-71
2022/08/17 04:37:03;;;;;;;6.00;5.33;;;20.60;99.90;;;;;;5017630;28;20258;-71
2022/08/17 04:39:28;;;;;;;7.57;5.63;;;20.60;99.90;;;;;;5034313;28;20174;-71
2022/08/17 04:42:06;;;;;;;6.80;6.23;;;20.60;99.90;;;;;;5033666;28;20192;-72
2022/08/17 04:44:33;;;;;;;5.83;5.33;;;20.50;99.90;;;;;;5027003;28;20198;-72
2022/08/17 04:46:58;;;;;;;6.03;5.53;;;20.30;99.90;;;;;;5014218;28;20411;-71
2022/08/17 04:49:24;;;;;;;7.07;5.30;;;20.20;99.90;;;;;;5015659;28;20407;-71
2022/08/17 04:51:50;;;;;;;6.17;5.60;;;20.20;99.90;;;;;;5015651;28;20605;-72
2022/08/17 04:54:18;;;;;;;5.90;5.40;;;20.40;99.90;;;;;;5015311;28;20168;-72
2022/08/17 04:56:45;;;;;;;5.53;5.13;;;20.50;99.90;;;;;;5015452;28;20637;-72
2022/08/17 04:59:19;;;;;;;5.27;4.87;;;20.60;99.90;;;;;;5014778;28;20410;-71
2022/08/17 05:01:47;;;;;;;5.93;5.13;;;20.60;99.90;;;;;;5014996;28;20442;-72
2022/08/17 05:04:17;;;;;;;6.00;5.40;;;20.70;99.90;;;;;;5013612;28;20419;-71
2022/08/17 05:06:43;;;;;;;7.73;5.73;;;20.70;99.90;;;;;;5015193;28;20415;-72
2022/08/17 05:09:09;;;;;;;5.70;5.20;;;20.60;99.90;;;;;;5015360;28;20402;-71
2022/08/17 05:11:35;;;;;;;5.97;5.47;;;20.60;99.90;;;;;;5015648;28;20427;-73
2022/08/17 05:14:01;;;;;;;7.80;5.60;;;20.70;99.90;;;;;;5020857;28;20523;-71
2022/08/17 05:16:27;;;;;;;5.80;5.30;;;20.80;99.90;;;;;;5034597;28;20210;-72
2022/08/17 05:18:53;;;;;;;6.93;6.20;;;20.90;99.90;;;;;;5035358;28;20175;-69
2022/08/17 05:21:21;;;;;;;6.67;6.07;;;20.90;99.90;;;;;;5035450;28;20414;-72
2022/08/17 05:23:47;;;;;;;6.20;5.70;;;21.00;99.90;;;;;;5033894;28;20186;-71
2022/08/17 05:26:16;;;;;;;5.77;5.23;;;21.10;99.90;;;;;;5035292;28;20409;-71
2022/08/17 05:28:41;;;;;;;5.90;5.47;;;21.20;99.90;;;;;;5033846;28;20434;-70
2022/08/17 05:31:07;;;;;;;6.17;5.63;;;21.20;99.90;;;;;;5034654;28;20497;-72
2022/08/17 05:33:36;;;;;;;5.63;5.23;;;21.20;99.90;;;;;;5035205;28;20180;-71
2022/08/17 05:36:03;;;;;;;5.83;5.30;;;21.30;99.90;;;;;;5034512;28;20907;-72
2022/08/17 05:38:30;;;;;;;7.97;6.20;;;21.40;99.90;;;;;;5034617;28;20781;-71
2022/08/17 05:40:57;;;;;;;6.60;6.00;;;21.50;99.90;;;;;;5034923;28;20402;-71
2022/08/17 05:43:26;;;;;;;5.50;5.00;;;21.60;99.90;;;;;;5034424;28;20441;-71
2022/08/17 05:46:18;;;;;;;5.57;5.00;;;21.70;99.90;;;;;;5034786;28;20497;-72
2022/08/17 05:48:56;;;;;;;7.27;5.67;;;21.90;99.90;;;;;;5034768;28;20395;-70
2022/08/17 05:52:13;;;;;;;7.10;6.40;;;22.00;99.90;;;;;;5033242;28;20411;-72
2022/08/17 05:55:11;;;;;;;7.23;6.17;;;22.00;99.90;;;;;;5033958;28;20438;-71
2022/08/17 05:57:48;;;;;;;6.80;5.87;;;22.10;99.90;;;;;;5034391;28;20783;-73
2022/08/17 06:00:13;;;;;;;6.83;6.20;;;22.30;99.90;;;;;;5033855;28;20370;-70
2022/08/17 06:03:13;;;;;;;8.20;6.40;;;22.40;99.90;;;;;;5033879;28;20813;-71
2022/08/17 06:06:00;;;;;;;6.73;6.13;;;22.50;99.90;;;;;;5034408;28;20162;-70
2022/08/17 06:08:53;;;;;;;7.20;6.50;;;22.70;99.90;;;;;;5032577;28;20414;-71
2022/08/17 06:11:25;;;;;;;7.90;6.43;;;22.90;99.90;;;;;;5034225;28;20507;-70
2022/08/17 06:14:21;;;;;;;5.57;5.17;;;23.00;99.90;;;;;;5033551;28;20853;-70
2022/08/17 06:16:53;;;;;;;5.97;5.47;;;23.10;99.90;;;;;;5034187;28;20394;-72
2022/08/17 06:19:38;;;;;;;6.67;6.17;;;23.20;99.90;;;;;;5033618;28;20390;-70
2022/08/17 06:22:07;;;;;;;6.63;6.00;;;23.40;99.90;;;;;;5033880;28;20413;-71
2022/08/17 06:24:48;;;;;;;7.43;6.67;;;23.40;99.90;;;;;;5031681;28;20509;-72
2022/08/17 06:27:26;;;;;;;6.90;6.20;;;23.50;99.90;;;;;;5033983;28;20767;-71
2022/08/17 06:30:08;;;;;;;6.50;6.00;;;23.60;99.90;;;;;;5033026;28;20477;-72
2022/08/17 06:32:40;;;;;;;6.60;6.10;;;23.80;99.90;;;;;;5033582;28;20509;-72
2022/08/17 06:35:09;;;;;;;6.47;5.87;;;23.90;99.90;;;;;;5033707;28;20426;-72
2022/08/17 06:37:52;;;;;;;6.20;5.67;;;24.00;99.90;;;;;;5033850;28;20939;-71
2022/08/17 06:40:57;;;;;;;7.07;6.47;;;24.00;99.90;;;;;;5033305;28;20382;-71
2022/08/17 06:43:47;;;;;;;7.80;7.20;;;24.10;99.90;;;;;;5033177;28;20497;-72
2022/08/17 06:46:35;;;;;;;8.73;7.90;;;24.00;99.90;;;;;;5032308;28;20788;-71
2022/08/17 06:49:31;;;;;;;8.73;7.90;;;24.00;99.90;;;;;;5032048;28;20429;-70
2022/08/17 06:52:20;;;;;;;11.55;8.90;;;24.20;99.90;;;;;;5034455;28;20405;-69
2022/08/17 06:55:02;;;;;;;11.43;8.90;;;24.10;99.90;;;;;;5033138;28;20183;-70
2022/08/17 06:57:31;;;;;;;10.37;8.80;;;24.40;99.90;;;;;;5033455;28;20402;-69
2022/08/17 07:00:12;;;;;;;9.37;8.47;;;24.40;99.90;;;;;;5033096;28;20407;-69
2022/08/17 07:03:05;;;;;;;10.33;8.03;;;24.30;99.90;;;;;;5033262;28;20465;-69
2022/08/17 07:05:40;;;;;;;10.20;8.30;;;24.60;99.90;;;;;;5033729;28;20472;-69
2022/08/17 07:08:18;;;;;;;8.00;7.20;;;25.10;99.90;;;;;;5033494;28;20405;-69
2022/08/17 07:10:49;;;;;;;7.80;6.80;;;25.30;99.60;;;;;;5033230;28;20960;-70
2022/08/17 07:13:20;;;;;;;9.60;6.83;;;25.20;99.40;;;;;;5033322;28;20434;-70
2022/08/17 07:15:48;;;;;;;8.00;6.80;;;25.10;99.10;;;;;;5032779;28;20442;-72
2022/08/17 07:18:14;;;;;;;7.33;6.63;;;24.90;99.30;;;;;;5031034;28;21009;-71
2022/08/17 07:20:45;;;;;;;7.50;6.80;;;25.00;99.50;;;;;;5033328;28;20505;-69
2022/08/17 07:23:19;;;;;;;7.70;6.00;;;25.00;98.40;;;;;;5033302;28;20219;-70
2022/08/17 07:25:45;;;;;;;6.87;6.00;;;25.10;97.90;;;;;;5033391;28;20390;-71
2022/08/17 07:28:11;;;;;;;7.50;5.83;;;25.10;97.40;;;;;;5033170;28;20409;-70
2022/08/17 07:30:48;;;;;;;7.40;6.47;;;25.20;97.60;;;;;;5032150;28;20258;-71
2022/08/17 07:33:18;;;;;;;6.93;6.17;;;25.50;97.10;;;;;;5031712;28;20840;-70
2022/08/17 07:35:47;;;;;;;7.27;6.57;;;25.40;96.90;;;;;;5033308;28;20470;-67
2022/08/17 07:38:23;;;;;;;9.27;6.70;;;25.40;97.30;;;;;;5036481;28;20406;-70
2022/08/17 07:41:04;;;;;;;7.30;6.60;;;25.60;97.00;;;;;;5036852;28;20379;-69
2022/08/17 07:43:39;;;;;;;6.87;6.27;;;25.80;96.60;;;;;;5036695;28;20443;-70
2022/08/17 07:48:52;;;;;;;6.63;6.03;;;25.60;96.50;;;;;;5036727;28;20917;-71
2022/08/17 07:51:30;;;;;;;6.63;6.00;;;25.50;96.50;;;;;;5036711;28;20847;-71
2022/08/17 07:53:58;;;;;;;7.40;6.80;;;25.50;96.10;;;;;;5036529;28;20428;-71
2022/08/17 07:56:31;;;;;;;7.53;6.70;;;25.40;96.60;;;;;;5036441;28;20445;-71
2022/08/17 07:59:23;;;;;;;8.13;7.37;;;25.60;96.40;;;;;;5035824;28;20418;-71
2022/08/17 08:04:41;;;;;;;7.40;6.70;;;25.90;95.80;;;;;;5031740;23;20486;-65
2022/08/17 08:07:30;;;;;;;9.43;7.00;;;25.90;95.70;;;;;;4996556;28;20759;-67
2022/08/17 08:10:05;;;;;;;6.83;6.20;;;26.20;95.00;;;;;;5016895;28;20413;-67
2022/08/17 08:12:37;;;;;;;7.10;6.20;;;26.40;94.60;;;;;;5035849;28;20406;-67
2022/08/17 08:15:24;;;;;;;6.67;6.07;;;26.80;94.00;;;;;;5035772;28;20457;-67
2022/08/17 08:17:56;;;;;;;6.17;5.67;;;;;;;;;;5035739;28;20409;-66
2022/08/17 08:20:26;;;;;;;6.33;5.73;;;;;;;;;;5035547;28;20410;-67
2022/08/17 08:23:17;;;;;;;6.70;6.10;;;27.30;92.70;;;;;;5035686;28;20942;-66
2022/08/17 08:25:50;;;;;;;6.77;6.23;;;27.30;93.50;;;;;;5035270;28;20387;-66
2022/08/17 08:28:34;;;;;;;6.60;6.00;;;27.00;93.20;;;;;;5035570;28;20438;-66
2022/08/17 08:31:20;;;;;;;8.57;6.93;;;26.70;93.60;;;;;;5035166;28;20399;-66
2022/08/17 08:34:01;;;;;;;6.97;6.33;;;26.50;94.60;;;;;;5035163;28;20432;-66
2022/08/17 08:36:45;;;;;;;7.10;6.50;;;26.90;94.40;;;;;;5035443;28;20442;-68
2022/08/17 08:39:28;;;;;;;7.17;6.57;;;27.10;93.70;;;;;;5035045;28;20501;-67
2022/08/17 08:42:06;;;;;;;6.77;6.07;;;27.30;92.90;;;;;;5035690;28;20387;-68
2022/08/17 08:44:57;;;;;;;7.53;6.10;;;27.30;92.80;;;;;;5019911;28;20403;-67
2022/08/17 08:47:47;;;;;;;6.57;6.07;;;27.30;92.50;;;;;;5015050;28;20406;-68
2022/08/17 08:50:22;;;;;;;7.30;6.53;;;27.30;92.80;;;;;;5012142;28;20427;-67
2022/08/17 08:53:02;;;;;;;6.70;5.97;;;27.40;93.10;;;;;;5015290;28;20434;-66
2022/08/17 08:55:43;;;;;;;6.97;6.37;;;27.30;93.70;;;;;;5014773;28;20500;-66
2022/08/17 08:58:16;;;;;;;6.73;6.23;;;27.40;93.20;;;;;;5014998;28;20452;-67
2022/08/17 09:00:47;;;;;;;7.30;6.00;;;27.40;92.90;;;;;;5013899;28;20414;-67
2022/08/17 09:03:41;;;;;;;7.10;6.40;;;27.40;93.30;;;;;;5014888;28;20453;-68
2022/08/17 09:06:11;;;;;;;6.73;5.93;;;27.40;93.30;;;;;;5015036;28;20387;-67
2022/08/17 09:09:07;;;;;;;6.67;6.07;;;27.50;93.80;;;;;;5015058;28;20478;-67
2022/08/17 09:11:47;;;;;;;6.63;6.00;;;27.60;94.20;;;;;;4995181;28;20392;-67
2022/08/17 09:14:21;;;;;;;8.80;6.10;;;27.60;94.20;;;;;;4994991;28;20416;-67
2022/08/17 09:17:20;;;;;;;6.57;5.97;;;27.50;93.60;;;;;;4995481;28;20396;-69
2022/08/17 09:19:58;;;;;;;6.80;6.30;;;27.50;95.10;;;;;;4995433;28;20916;-68
2022/08/17 09:22:36;;;;;;;7.20;6.53;;;27.50;95.50;;;;;;4995056;28;20422;-69
2022/08/17 09:25:27;;;;;;;7.53;6.47;;;27.60;96.10;;;;;;4994283;28;20423;-69
2022/08/17 09:28:17;;;;;;;7.60;6.80;;;27.60;96.30;;;;;;4995240;28;20394;-68
2022/08/17 09:30:46;;;;;;;8.40;7.77;;;27.50;96.00;;;;;;4994898;28;20744;-68
2022/08/17 09:33:26;;;;;;;7.83;7.23;;;27.40;99.00;;;;;;4994797;28;20467;-68
2022/08/17 09:35:57;;;;;;;7.93;7.13;;;27.20;99.90;;;;;;4994575;28;20447;-68
2022/08/17 09:38:57;;;;;;;7.43;6.83;;;27.10;99.90;;;;;;4994869;28;20414;-67
2022/08/17 09:41:34;;;;;;;9.97;8.10;;;26.80;99.90;;;;;;4994308;28;20391;-67
2022/08/17 09:44:18;;;;;;;9.20;8.40;;;26.50;99.90;;;;;;4994479;28;20470;-67
2022/08/17 09:47:11;;;;;;;8.97;8.07;;;26.20;99.90;;;;;;4994520;28;20384;-67
2022/08/17 09:49:48;;;;;;;7.90;7.30;;;26.20;99.90;;;;;;4994993;28;20478;-68
2022/08/17 09:52:25;;;;;;;7.80;7.20;;;26.00;99.90;;;;;;4994184;28;21183;-66
2022/08/17 09:54:53;;;;;;;9.60;8.50;;;25.90;99.90;;;;;;4993670;28;20501;-66
2022/08/17 09:57:36;;;;;;;9.37;8.47;;;25.60;99.90;;;;;;4994288;28;20407;-66
2022/08/17 10:00:17;;;;;;;8.30;7.47;;;25.00;99.90;;;;;;4994453;28;20783;-66
2022/08/17 10:03:08;;;;;;;8.00;7.20;;;24.60;99.90;;;;;;4994220;28;20519;-66
2022/08/17 10:05:50;;;;;;;7.80;7.20;;;24.60;99.90;;;;;;4994434;28;20408;-67
2022/08/17 10:08:28;;;;;;;9.10;8.27;;;24.90;99.90;;;;;;4994394;28;20421;-67
2022/08/17 10:11:06;;;;;;;8.93;8.17;;;25.10;99.90;;;;;;5027330;28;20413;-66
2022/08/17 10:13:46;;;;;;;10.50;8.13;;;25.10;99.90;;;;;;5033712;28;20429;-67
2022/08/17 10:16:24;;;;;;;8.67;7.77;;;25.10;99.90;;;;;;5033389;28;20445;-66
2022/08/17 10:19:14;;;;;;;9.13;7.90;;;25.10;99.90;;;;;;5033278;28;20394;-67
2022/08/17 10:27:29;;;;;;;8.47;7.63;;;25.50;99.90;;;;;;5020991;28;20464;-67
2022/08/17 10:29:59;;;;;;;7.03;6.53;;;25.30;99.90;;;;;;5009927;28;20786;-67
2022/08/17 10:32:39;;;;;;;6.70;6.13;;;25.60;99.90;;;;;;5011972;28;20407;-67
2022/08/17 10:35:24;;;;;;;9.10;7.03;;;25.90;99.90;;;;;;5031386;28;20452;-67
2022/08/17 10:38:24;;;;;;;8.30;7.60;;;25.80;99.90;;;;;;5031706;28;20433;-67
2022/08/17 10:41:01;;;;;;;7.77;7.17;;;25.90;99.90;;;;;;5032361;28;20968;-67
2022/08/17 10:43:43;;;;;;;6.30;5.80;;;25.90;99.90;;;;;;5033073;28;20422;-67
2022/08/17 10:46:43;;;;;;;7.17;6.30;;;26.10;99.90;;;;;;5033375;28;20382;-67
2022/08/17 10:49:23;;;;;;;6.33;5.87;;;26.30;99.90;;;;;;5033385;28;20959;-67
2022/08/17 10:51:54;;;;;;;5.77;5.27;;;26.40;99.90;;;;;;5033236;28;20476;-67
2022/08/17 10:54:23;;;;;;;6.10;5.57;;;26.50;99.90;;;;;;5033007;28;20410;-67
2022/08/17 10:56:51;;;;;;;5.10;4.60;;;26.60;99.90;;;;;;5032855;28;20405;-66
2022/08/17 10:59:50;;;;;;;5.97;5.33;;;26.70;99.90;;;;;;5032776;28;20490;-66
2022/08/17 11:02:44;;;;;;;6.13;5.03;;;26.50;99.90;;;;;;5010381;28;20466;-67
2022/08/17 11:05:27;;;;;;;6.50;6.00;;;26.60;99.90;;;;;;5031268;28;20425;-67
2022/08/17 11:08:06;;;;;;;5.73;5.23;;;26.50;99.90;;;;;;5032760;28;20382;-67
2022/08/17 11:11:02;;;;;;;7.23;6.07;;;26.60;99.90;;;;;;5031117;28;20859;-67
2022/08/17 11:13:40;;;;;;;5.43;5.03;;;26.50;99.90;;;;;;5037254;28;20457;-67
2022/08/17 11:16:40;;;;;;;5.70;5.20;;;26.20;98.80;;;;;;5036907;28;20947;-67
2022/08/17 11:19:29;;;;;;;6.23;5.73;;;25.60;99.70;;;;;;5037170;28;20389;-67
2022/08/17 11:22:09;;;;;;;6.00;5.50;;;25.50;99.50;;;;;;5036365;28;20377;-67
2022/08/17 11:24:51;;;;;;;5.03;4.53;;;25.30;99.90;;;;;;5036591;28;20418;-66
2022/08/17 11:27:34;;;;;;;5.53;5.10;;;25.30;99.90;;;;;;5036688;28;20459;-66
2022/08/17 11:30:09;;;;;;;5.47;4.97;;;25.60;99.90;;;;;;5036365;28;20398;-67
2022/08/17 11:32:43;;;;;;;5.97;5.37;;;25.60;99.90;;;;;;5036603;28;20413;-66
2022/08/17 11:35:21;;;;;;;5.70;4.97;;;25.70;99.90;;;;;;5036533;28;20444;-66
2022/08/17 11:38:01;;;;;;;5.37;4.90;;;25.80;99.90;;;;;;5036570;28;20843;-66
2022/08/17 11:40:50;;;;;;;5.97;5.47;;;25.80;99.90;;;;;;5035763;28;20416;-67
2022/08/17 11:43:54;;;;;;;4.67;4.37;;;25.50;99.90;;;;;;5036507;28;20479;-67
2022/08/17 11:51:32;;;;;;;5.60;5.10;;;25.50;99.90;;;;;;5037090;28;20394;-67
2022/08/17 11:52:37;;;;;;;9.10;5.20;;;25.70;99.90;;;;;;5020238;28;21020;-66
2022/08/17 11:55:05;;;;;;;5.00;4.60;;;25.20;99.90;;;;;;5035519;28;20523;-66
2022/08/17 11:57:39;;;;;;;4.53;4.23;;;25.40;99.90;;;;;;5036242;28;20414;-67
2022/08/17 12:00:24;;;;;;;5.00;4.50;;;25.70;99.90;;;;;;5036178;28;20394;-66
2022/08/17 12:03:29;;;;;;;6.33;4.97;;;25.50;99.90;;;;;;5029727;28;20525;-66
2022/08/17 12:06:28;;;;;;;5.10;4.60;;;25.80;99.90;;;;;;5016198;28;20465;-66
2022/08/17 12:09:11;;;;;;;5.23;4.73;;;26.10;99.90;;;;;;5016126;28;20407;-67
2022/08/17 12:12:16;;;;;;;7.13;4.70;;;26.40;99.60;;;;;;4996108;28;20936;-67
2022/08/17 12:14:50;;;;;;;5.30;4.80;;;26.30;99.70;;;;;;4993340;28;21054;-66
2022/08/17 12:17:21;;;;;;;5.53;4.97;;;26.00;99.90;;;;;;4996383;28;20392;-67
2022/08/17 12:19:47;;;;;;;5.23;4.70;;;26.50;99.90;;;;;;4996548;28;20421;-67
2022/08/17 12:22:20;;;;;;;5.27;4.87;;;27.00;98.30;;;;;;4996417;28;20409;-68
2022/08/17 12:25:09;;;;;;;4.70;4.30;;;27.00;98.10;;;;;;4996124;28;20188;-67
2022/08/17 12:27:43;;;;;;;4.90;4.50;;;27.00;97.40;;;;;;4996386;28;20380;-67
2022/08/17 12:30:15;;;;;;;4.83;4.40;;;27.10;96.50;;;;;;4996199;28;20404;-67
2022/08/17 12:32:44;;;;;;;4.87;4.47;;;27.40;96.40;;;;;;4996080;28;20432;-67
2022/08/17 12:35:40;;;;;;;5.03;4.70;;;27.70;95.90;;;;;;4995636;28;20452;-68
2022/08/17 12:38:09;;;;;;;5.90;4.53;;;27.70;94.60;;;;;;4983661;28;20424;-69
2022/08/17 12:40:34;;;;;;;4.07;3.77;;;27.90;93.90;;;;;;5007204;28;20809;-67
2022/08/17 12:43:19;;;;;;;4.37;4.07;;;27.80;92.70;;;;;;5015534;28;20526;-67
2022/08/17 12:45:58;;;;;;;5.43;4.93;;;27.90;91.90;;;;;;5014489;28;20156;-69
2022/08/17 12:48:26;;;;;;;4.80;4.40;;;28.10;92.10;;;;;;5015331;28;20478;-69
2022/08/17 12:51:02;;;;;;;4.90;4.50;;;27.70;91.80;;;;;;5015132;28;20407;-69
2022/08/17 12:53:31;;;;;;;4.63;4.20;;;27.60;91.70;;;;;;5015291;28;20429;-68
2022/08/17 12:55:58;;;;;;;4.77;4.37;;;27.40;91.40;;;;;;5014552;28;20438;-67
2022/08/17 12:58:30;;;;;;;5.17;4.77;;;27.70;90.90;;;;;;5015165;28;20403;-68
2022/08/17 13:01:12;;;;;;;5.07;4.67;;;28.10;91.10;;;;;;5014784;28;20906;-67
2022/08/17 13:03:42;;;;;;;6.03;4.53;;;28.30;90.30;;;;;;5014619;28;20434;-68
2022/08/17 13:06:13;;;;;;;5.50;5.10;;;28.50;90.40;;;;;;5014809;28;20407;-69
2022/08/17 13:08:44;;;;;;;5.30;4.80;;;29.70;89.10;;;;;;5015147;28;20392;-68
2022/08/17 13:11:13;;;;;;;4.83;4.43;;;31.30;82.20;;;;;;5029052;28;20514;-69
2022/08/17 13:13:45;;;;;;;4.43;4.03;;;32.80;77.00;;;;;;5033193;28;20429;-67
2022/08/17 13:16:10;;;;;;;4.80;4.40;;;33.80;70.00;;;;;;5034201;28;20453;-68
2022/08/17 13:18:39;;;;;;;4.77;4.37;;;33.70;66.70;;;;;;5034721;28;20413;-69
2022/08/17 13:21:15;;;;;;;4.53;3.90;;;33.70;65.10;;;;;;5034510;28;20229;-69
2022/08/17 13:23:44;;;;;;;3.40;3.20;;;33.30;66.80;;;;;;5034413;28;20788;-69
2022/08/17 13:26:14;;;;;;;4.77;3.67;;;32.70;68.00;;;;;;5033684;28;20501;-68
2022/08/17 13:28:48;;;;;;;4.30;4.00;;;33.40;66.10;;;;;;5034792;28;20938;-66
2022/08/17 13:31:31;;;;;;;4.70;4.30;;;32.60;66.00;;;;;;5034678;28;20422;-68
2022/08/17 13:34:16;;;;;;;4.40;4.10;;;32.90;64.70;;;;;;5033678;28;20422;-69
2022/08/17 13:36:42;;;;;;;4.30;3.93;;;33.40;63.30;;;;;;5034276;28;20528;-68
2022/08/17 13:39:19;;;;;;;4.90;4.50;;;33.80;64.30;;;;;;5034355;28;20482;-69
2022/08/17 13:41:47;;;;;;;4.10;3.80;;;35.60;59.20;;;;;;5033410;28;20956;-68
2022/08/17 13:44:32;;;;;;;3.93;3.63;;;34.60;59.00;;;;;;5033726;28;20417;-68
2022/08/17 13:46:58;;;;;;;6.03;4.33;;;35.80;57.40;;;;;;5033919;28;20409;-69
2022/08/17 13:49:25;;;;;;;6.00;4.30;;;36.10;57.20;;;;;;5033845;28;20430;-68